Racecast

Elliot Oldenburg

ThunderRidge (CO) · 11 · Compare head to head

Athlete rating 121.9 2026 TF season
Best race 122.7 TF
Races 37
Seasons 4 2023 — 2026

RankedNation #14281·CO #414·CO D5A #261·CONTINENTAL #74·Team #18 ?

Speed rating — all races

Cross Country

XC speed rating

2025 XC 118.6

Highlands Ranch CO (CO) · Grade 11

Date Meet Event Result Place Rating Difficulty PR/SR Flags
2025-11-29 Dannehl XC Course, Univ. of Wisconsin Parkside 5000m 18:09.5 25th · 1st on team 116.3 +0.028 ★CR CSR
2025-11-22 Toka Sticks Golf Course 5000m 17:25 152nd · 9th on team 118.2 +0.009 ★CR CSR
2025-09-26 Clement Park 5000m 17:43.5 76th · 4th on team 118.5 +0.030 ★CR CSR
2025-09-19 Great Park 4828m 16:12.4 109th · 4th on team 118.2 -0.024 ★PR ★CR SR CSR
2025-09-13 Heritage High School 5000m 16:45.2 8th · 1st on team 121.9 -0.001 ★PR ★CR R SR CSR RSR

2024 XC 115.8

HIGHLANDS RANCH CO (CO) · Grade 10

Date Meet Event Result Place Rating Difficulty PR/SR Flags
2024-11-30 Dannehl XC Course, Univ. of Wisconsin Parkside 5000m 18:45 42nd · 1st on team 112.1 +0.028 CR CSR
2024-11-23 Toka Sticks Golf Course 5000m 18:11.9 123rd · 10th on team 113.8 +0.009 CR CSR
2024-10-24 Julia deKoevend Park 5000m 18:30.4 54th · 9th on team 116.2 +0.054
2024-09-20 Lincoln Park Golf Course 5000m 17:20.2 55th · 7th on team 116.6 -0.012 PR ★CR SR CSR
2024-09-07 Cherry Creek High School 5000m 17:48.4 93rd · 6th on team 117.0 +0.018 PR ★CR SR CSR
2024-08-30 Julia deKoevend Park 5000m 18:11.6 64th · 7th on team 118.7 +0.054 PR ★CR R SR CSR RSR
2024-08-24 Mountain Vista High School 3218m 11:35 52nd · 6th on team 116.0 +0.067 ★PR ★CR R SR CSR RSR

2023 XC 107.7

HIGHLANDS RANCH CO (CO) · Grade 9

Date Meet Event Result Place Rating Difficulty PR/SR Flags
2023-11-25 UW Parkside 5000m 19:18.5 56th · 1st on team 109.8 +0.046 ★CR CSR
2023-11-18 Coyote Run Golf Course at Leisure World 5000m 19:01 191st · 5th on team 111.0 +0.029 PR ★CR R SR CSR RSR
2023-10-12 Salisbury Regional Park 5000m 20:09.5 47th · 6th on team 106.0 +0.050 ★CR CSR
2023-09-22 Clement Park 5000m 19:25.9 38th · 4th on team 109.2 +0.030 CR R CSR RSR
2023-09-09 Heritage High School 5000m 19:14.4 23rd · 1st on team 108.1 -0.001 PR CR R SR CSR RSR
2023-09-01 Julia deKoevend Park 5000m 21:25.5 80th · 6th on team 102.3 +0.054 PR CR R SR CSR RSR

Track & Field

TF speed rating

2026 TF 119.8

ThunderRidge (CO) · Grade 11

Date Meet Event Result Place Rating Difficulty PR/SR Flags
2026-05-08 Windjammer Track Classic 800m 2:10.42 41st · 2nd on team 117.8 -0.016 ★PR SR
2026-05-02 Continental League Championships 3200m 10:16.7 14th · 4th on team 122.3 -0.003
2026-04-24 Liberty Bell Invitational 800m 2:11.52 57th · 1st on team 116.8 -0.015 PR SR
2026-04-23 Stutler Twilight 3200m 10:25.23 29th · 3rd on team 119.3 -0.014
2026-04-15 Continental League JV #3 1600m 4:54.1 11th · 3rd on team 118.2 -0.003 ★PR SR
2026-04-04 Altitude Running Invitational 3200m 10:23.82 11th · 3rd on team 119.9 -0.012
2026-03-28 Niwot Invitational 3200m 10:07.81 54th · 4th on team 122.7 -0.014 ★PR ★R SR RSR
2026-03-21 Broomfield Shootout 3200m 10:15.97 18th · 3rd on team 121.3 -0.012 PR SR RSR

2025 TF 112.0

ThunderRidge (CO) · Grade 10

Date Meet Event Result Place Rating Difficulty PR/SR Flags
2025-05-01 Continental League Championship 3200m 10:55.63 15th · 3rd on team 114.0 -0.003 PR SR RSR
2025-04-21 Huskie Twilight 3200m 11:26.12 24th · 2nd on team 109.7 -0.003
2025-04-05 Northfield Invitational 1600m 5:09.13 11th · 3rd on team 111.3 -0.011 PR SR
2025-04-04 Northfield Nighthawk Invitational 1600m 5:09.14 11th · 3rd on team 112.2 -0.011 PR SR
2025-03-15 ThunderRidge Invitational 3200m 11:04.88 13th · 2nd on team 112.6 -0.003 PR SR RSR

2024 TF 107.4

ThunderRidge (CO) · Grade 9

Date Meet Event Result Place Rating Difficulty PR/SR Flags
2024-04-30 Continental League JV Championships 3200m 11:22.58 5th · 1st on team 110.1 -0.003 PR SR
2024-04-24 Continental League F/S Championships 1600m 5:11.92 19th · 2nd on team 111.3 -0.003 PR R SR RSR
2024-04-17 Continental League JV#3 800m 2:27.84 19th · 4th on team 105.3 -0.003 PR SR
2024-04-17 Continental League JV#3 1600m 5:15.03 12th · 4th on team 110.2 -0.003 PR SR RSR
2024-03-30 Chaparral Invitational 800m 2:35.39 22nd · 5th on team 100.2 -0.003 PR SR RSR
2024-03-30 Chaparral Invitational 1600m 5:24.25 22nd · 6th on team 107.1 -0.003 PR SR RSR